createdAt,value
2022-08-05T00:00:30.400Z,54.39
2022-08-05T00:03:01.829Z,54.66
2022-08-05T00:06:04.837Z,54.72
2022-08-05T00:08:35.063Z,54.54
2022-08-05T00:11:20.821Z,54.51
2022-08-05T00:14:02.195Z,54.49
2022-08-05T00:16:35.879Z,54.99
2022-08-05T00:19:08.430Z,55.23
2022-08-05T00:21:39.941Z,55.64
2022-08-05T00:24:16.110Z,56.04
2022-08-05T00:26:52.181Z,55.86
2022-08-05T00:29:25.312Z,55.67
2022-08-05T00:32:13.343Z,55.66
2022-08-05T00:35:05.124Z,55.99
2022-08-05T00:37:53.376Z,55.81
2022-08-05T00:40:29.529Z,55.91
2022-08-05T00:43:02.925Z,56.45
2022-08-05T00:45:44.005Z,56.81
2022-08-05T00:48:17.764Z,56.43
2022-08-05T00:50:59.083Z,56.32
2022-08-05T00:54:00.921Z,56.46
2022-08-05T00:56:22.745Z,56.46
2022-08-05T00:58:54.644Z,56.74
2022-08-05T01:01:42.722Z,56.89
2022-08-05T01:04:20.272Z,57.11
2022-08-05T01:06:58.751Z,57.26
2022-08-05T01:09:30.581Z,57.38
2022-08-05T01:12:18.601Z,56.92
2022-08-05T01:14:58.720Z,56.76
2022-08-05T01:17:39.878Z,56.72
2022-08-05T01:20:20.892Z,56.74
2022-08-05T01:23:14.965Z,57.13
2022-08-05T01:26:04.110Z,56.94
2022-08-05T01:28:41.025Z,57.20
2022-08-05T01:31:18.460Z,57.59
2022-08-05T01:33:55.959Z,58.10
2022-08-05T01:36:32.579Z,58.08
2022-08-05T01:39:05.185Z,57.77
2022-08-05T01:41:44.405Z,57.67
2022-08-05T01:44:16.985Z,57.75
2022-08-05T01:46:50.051Z,57.91
2022-08-05T01:50:00.296Z,58.24
2022-08-05T01:52:22.928Z,58.84
2022-08-05T01:54:58.296Z,58.46
2022-08-05T01:58:12.249Z,58.05
2022-08-05T02:00:30.636Z,58.14
2022-08-05T02:03:24.600Z,58.27
2022-08-05T02:06:03.373Z,58.24
2022-08-05T02:08:55.189Z,58.35
2022-08-05T02:11:42.243Z,58.20
2022-08-05T02:14:26.020Z,58.29
2022-08-05T02:17:02.086Z,58.35
2022-08-05T02:19:47.101Z,58.03
2022-08-05T02:22:26.787Z,58.18
2022-08-05T02:25:03.493Z,58.58
2022-08-05T02:27:59.192Z,59.25
2022-08-05T02:30:51.697Z,58.86
2022-08-05T02:33:38.670Z,58.71
2022-08-05T02:36:15.426Z,58.81
2022-08-05T02:38:53.237Z,59.34
2022-08-05T02:41:28.347Z,59.95
2022-08-05T02:44:13.040Z,59.92
2022-08-05T02:46:58.637Z,59.95
2022-08-05T02:49:37.712Z,59.66
2022-08-05T02:52:29.453Z,59.85
2022-08-05T02:55:05.598Z,60.34
2022-08-05T02:58:09.708Z,60.59
2022-08-05T03:00:38.558Z,60.41
2022-08-05T03:03:10.852Z,60.42
2022-08-05T03:06:54.059Z,60.09
2022-08-05T03:08:36.578Z,60.46
2022-08-05T03:11:57.184Z,60.91
2022-08-05T03:14:09.372Z,61.08
2022-08-05T03:16:45.174Z,60.72
2022-08-05T03:19:33.793Z,60.49
2022-08-05T03:22:16.812Z,60.69
2022-08-05T03:24:52.366Z,60.74
2022-08-05T03:27:29.596Z,60.98
2022-08-05T03:30:13.760Z,61.17
2022-08-05T03:32:47.196Z,60.95
2022-08-05T03:35:24.135Z,60.30
2022-08-05T03:38:01.661Z,59.69
2022-08-05T03:40:36.564Z,59.40
2022-08-05T03:43:59.167Z,58.92
2022-08-05T03:46:03.447Z,58.67
2022-08-05T03:48:35.362Z,58.07
2022-08-05T03:52:38.779Z,56.94
2022-08-05T03:55:00.220Z,55.43
2022-08-05T03:57:16.522Z,54.48
2022-08-05T03:59:55.782Z,53.06
2022-08-05T04:02:38.327Z,52.17
2022-08-05T04:05:14.157Z,51.63
2022-08-05T04:07:57.144Z,51.48
2022-08-05T04:10:37.664Z,50.87
2022-08-05T04:13:09.742Z,50.55
2022-08-05T04:16:03.362Z,50.13
2022-08-05T04:18:34.496Z,49.75
2022-08-05T04:21:07.441Z,49.13
2022-08-05T04:24:00.261Z,49.35
2022-08-05T04:26:35.636Z,48.59
2022-08-05T04:29:07.981Z,47.64
2022-08-05T04:31:41.160Z,47.07
2022-08-05T04:34:31.573Z,46.66
2022-08-05T04:37:05.958Z,46.45
2022-08-05T04:39:37.717Z,46.52
2022-08-05T04:42:11.765Z,45.90
2022-08-05T04:44:43.205Z,45.39
2022-08-05T04:47:20.007Z,44.86
2022-08-05T04:50:02.673Z,45.00
2022-08-05T04:52:42.458Z,44.87
2022-08-05T04:55:15.408Z,44.66
2022-08-05T04:57:54.241Z,44.96
2022-08-05T05:00:26.593Z,44.94
2022-08-05T05:03:02.909Z,44.94
2022-08-05T05:06:40.635Z,44.80
2022-08-05T05:08:30.361Z,44.51
2022-08-05T05:11:02.048Z,44.55
2022-08-05T05:13:43.270Z,44.72
2022-08-05T05:16:15.550Z,44.46
2022-08-05T05:19:16.473Z,44.68
2022-08-05T05:21:42.762Z,44.20
2022-08-05T05:24:17.981Z,43.96
2022-08-05T05:26:51.993Z,43.93
2022-08-05T05:29:24.056Z,43.35
2022-08-05T05:32:15.618Z,43.25
2022-08-05T05:34:49.862Z,42.92
2022-08-05T05:37:24.275Z,42.79
2022-08-05T05:40:12.501Z,42.88
2022-08-05T05:42:46.959Z,42.86
2022-08-05T05:45:19.007Z,42.79
2022-08-05T05:48:07.088Z,42.75
2022-08-05T05:50:44.297Z,42.16
2022-08-05T05:53:22.352Z,42.01
2022-08-05T05:56:01.247Z,41.78
2022-08-05T05:58:35.039Z,42.16
2022-08-05T06:01:13.242Z,42.18
2022-08-05T06:04:00.890Z,42.16
2022-08-05T06:06:34.649Z,42.27
2022-08-05T06:09:07.773Z,42.17
2022-08-05T06:11:39.497Z,41.92
2022-08-05T06:14:11.102Z,41.98
2022-08-05T06:16:42.763Z,41.63
2022-08-05T06:19:15.207Z,41.38
2022-08-05T06:22:07.135Z,40.89
2022-08-05T06:24:48.260Z,40.86
2022-08-05T06:28:10.502Z,40.83
2022-08-05T06:30:17.963Z,40.87
2022-08-05T06:32:52.847Z,40.54
2022-08-05T06:36:08.056Z,40.43
2022-08-05T06:38:16.322Z,40.48
2022-08-05T06:40:48.479Z,40.32
2022-08-05T06:43:58.163Z,40.17
2022-08-05T06:46:12.459Z,40.17
2022-08-05T06:48:54.648Z,40.16
2022-08-05T06:51:31.330Z,39.96
2022-08-05T06:54:04.932Z,39.75
2022-08-05T06:56:36.600Z,39.85
2022-08-05T06:59:09.860Z,39.89
2022-08-05T07:01:43.987Z,40.04
2022-08-05T07:04:19.195Z,40.56
2022-08-05T07:06:51.011Z,40.66
2022-08-05T07:09:24.887Z,40.84
2022-08-05T07:11:56.764Z,40.47
2022-08-05T07:14:49.666Z,40.41
2022-08-05T07:18:01.904Z,40.16
2022-08-05T07:20:32.914Z,40.24
2022-08-05T07:23:05.368Z,40.22
2022-08-05T07:25:56.264Z,39.07
2022-08-05T07:28:28.375Z,38.27
2022-08-05T07:30:59.853Z,38.90
2022-08-05T07:33:35.103Z,39.35
2022-08-05T07:36:20.609Z,38.23
2022-08-05T07:38:54.702Z,38.63
2022-08-05T07:42:14.039Z,38.95
2022-08-05T07:44:19.663Z,38.96
2022-08-05T07:46:52.117Z,39.07
2022-08-05T07:49:25.434Z,38.66
2022-08-05T07:51:58.732Z,39.19
2022-08-05T07:54:33.589Z,39.12
2022-08-05T07:57:18.171Z,39.03
2022-08-05T08:00:02.176Z,38.85
2022-08-05T08:03:13.387Z,38.44
2022-08-05T08:05:27.034Z,38.18
2022-08-05T08:07:59.994Z,38.15
2022-08-05T08:10:32.423Z,37.86
2022-08-05T08:13:05.199Z,37.65
2022-08-05T08:16:35.423Z,37.75
2022-08-05T08:18:29.066Z,37.86
2022-08-05T08:21:03.822Z,38.09
2022-08-05T08:24:02.683Z,38.00
2022-08-05T08:26:29.738Z,37.26
2022-08-05T08:29:45.538Z,37.79
2022-08-05T08:31:54.372Z,37.22
2022-08-05T08:34:30.237Z,37.69
2022-08-05T08:37:05.683Z,37.74
2022-08-05T08:39:38.175Z,36.97
2022-08-05T08:42:33.757Z,36.61
2022-08-05T08:45:26.143Z,36.47
2022-08-05T08:48:13.054Z,37.11
2022-08-05T08:51:23.224Z,35.99
2022-08-05T08:53:47.039Z,35.85
2022-08-05T08:56:19.706Z,36.50
2022-08-05T08:58:54.254Z,36.15
2022-08-05T09:01:25.880Z,35.77
2022-08-05T09:03:58.900Z,36.52
2022-08-05T09:06:33.280Z,36.08
2022-08-05T09:09:08.274Z,36.04
2022-08-05T09:11:52.590Z,37.03
2022-08-05T09:14:57.231Z,36.31
2022-08-05T09:17:42.733Z,36.91
2022-08-05T09:20:10.878Z,36.70
2022-08-05T09:23:18.608Z,36.87
2022-08-05T09:26:03.275Z,37.30
2022-08-05T09:28:38.686Z,37.32
2022-08-05T09:31:44.110Z,37.47
2022-08-05T09:34:07.255Z,37.49
2022-08-05T09:36:56.439Z,37.60
2022-08-05T09:39:45.096Z,37.39
2022-08-05T09:42:23.920Z,36.61
2022-08-05T09:46:04.728Z,36.93
2022-08-05T09:47:59.314Z,37.77
2022-08-05T09:50:44.889Z,37.71
2022-08-05T09:53:25.810Z,37.78
2022-08-05T09:56:03.923Z,37.72
2022-08-05T09:58:37.054Z,37.23
2022-08-05T10:01:31.910Z,36.90
2022-08-05T10:04:10.614Z,36.75
2022-08-05T10:06:54.713Z,37.35
2022-08-05T10:09:28.209Z,37.62
2022-08-05T10:12:18.767Z,36.88
2022-08-05T10:15:20.188Z,36.84
2022-08-05T10:18:13.479Z,37.22
2022-08-05T10:20:48.544Z,37.58
2022-08-05T10:23:55.900Z,38.14
2022-08-05T10:26:14.893Z,38.44
2022-08-05T10:28:47.615Z,37.82
2022-08-05T10:32:52.723Z,37.28
2022-08-05T10:34:12.116Z,37.06
2022-08-05T10:36:44.651Z,37.36
2022-08-05T10:39:25.164Z,37.58
2022-08-05T10:42:32.577Z,37.32
2022-08-05T10:45:20.857Z,37.86
2022-08-05T10:48:29.948Z,37.95
2022-08-05T10:51:00.984Z,37.58
2022-08-05T10:53:42.442Z,38.26
2022-08-05T10:56:25.712Z,37.52
2022-08-05T10:59:12.501Z,37.67
2022-08-05T11:02:38.607Z,37.63
2022-08-05T11:05:12.153Z,37.88
2022-08-05T11:08:33.846Z,38.16
2022-08-05T11:11:18.871Z,38.47
2022-08-05T11:13:58.338Z,38.64
2022-08-05T11:16:33.879Z,38.32
2022-08-05T11:20:10.473Z,38.69
2022-08-05T11:22:49.974Z,38.37
2022-08-05T11:26:04.761Z,37.90
2022-08-05T11:28:49.511Z,37.57
2022-08-05T11:31:54.322Z,37.97
2022-08-05T11:34:38.030Z,38.58
2022-08-05T11:38:29.526Z,38.22
2022-08-05T11:40:03.717Z,37.77
2022-08-05T11:42:41.112Z,37.49
2022-08-05T11:45:23.020Z,37.40
2022-08-05T11:48:11.848Z,37.01
2022-08-05T11:50:46.425Z,36.90
2022-08-05T11:53:18.667Z,36.87
2022-08-05T11:56:00.769Z,36.98
2022-08-05T11:58:40.221Z,36.73
2022-08-05T12:01:13.797Z,36.81
2022-08-05T12:03:55.541Z,36.79
2022-08-05T12:06:29.841Z,36.92
2022-08-05T12:09:01.961Z,36.62
2022-08-05T12:11:40.080Z,36.66
2022-08-05T12:14:12.394Z,36.32
2022-08-05T12:16:47.244Z,36.07
2022-08-05T12:20:26.583Z,36.15
2022-08-05T12:22:14.152Z,35.92
2022-08-05T12:24:53.341Z,35.88
2022-08-05T12:27:26.754Z,35.65
2022-08-05T12:30:07.304Z,35.95
2022-08-05T12:32:46.331Z,35.64
2022-08-05T12:35:23.884Z,35.16
2022-08-05T12:38:11.256Z,35.31
2022-08-05T12:40:44.285Z,35.15
2022-08-05T12:43:21.015Z,35.14
2022-08-05T12:45:57.064Z,34.58
2022-08-05T12:48:32.589Z,34.30
2022-08-05T12:52:09.914Z,34.15
2022-08-05T12:54:16.917Z,34.17
2022-08-05T12:56:57.058Z,34.32
2022-08-05T12:59:46.736Z,33.56
2022-08-05T13:02:27.241Z,33.08
2022-08-05T13:05:01.990Z,33.07
2022-08-05T13:07:59.089Z,33.26
2022-08-05T13:10:28.803Z,33.58
2022-08-05T13:12:58.881Z,33.63
2022-08-05T13:15:41.386Z,33.64
2022-08-05T13:18:20.884Z,33.27
2022-08-05T13:20:52.503Z,32.80
2022-08-05T13:23:24.752Z,33.07
2022-08-05T13:25:59.524Z,33.00
2022-08-05T13:28:32.883Z,32.62
2022-08-05T13:31:14.458Z,33.17
2022-08-05T13:34:23.084Z,33.51
2022-08-05T13:36:38.893Z,33.84
2022-08-05T13:39:24.392Z,34.26
2022-08-05T13:42:02.992Z,33.71
2022-08-05T13:44:34.819Z,33.74
2022-08-05T13:47:09.081Z,33.48
2022-08-05T13:49:45.144Z,33.09
2022-08-05T13:52:20.573Z,33.72
2022-08-05T13:55:01.312Z,33.94
2022-08-05T13:57:50.921Z,34.21
2022-08-05T14:00:27.711Z,34.18
2022-08-05T14:03:01.130Z,33.79
2022-08-05T14:06:04.835Z,33.32
2022-08-05T14:08:32.280Z,32.34
2022-08-05T14:11:20.395Z,32.11
2022-08-05T14:13:54.966Z,32.12
2022-08-05T14:16:28.456Z,32.59
2022-08-05T14:19:04.490Z,33.00
2022-08-05T14:22:10.279Z,33.21
2022-08-05T14:24:27.710Z,32.99
2022-08-05T14:27:17.692Z,32.42
2022-08-05T14:29:51.426Z,32.62
2022-08-05T14:32:26.822Z,33.64
2022-08-05T14:34:59.247Z,33.86
2022-08-05T14:37:45.702Z,32.98
2022-08-05T14:40:19.791Z,32.61
2022-08-05T14:42:55.998Z,32.81
2022-08-05T14:45:27.822Z,33.05
2022-08-05T14:48:04.969Z,32.84
2022-08-05T14:50:40.778Z,33.32
2022-08-05T14:53:12.932Z,33.20
2022-08-05T14:55:50.667Z,32.95
2022-08-05T14:58:23.875Z,32.54
2022-08-05T15:00:59.542Z,32.17
2022-08-05T15:03:39.024Z,31.77
2022-08-05T15:06:14.987Z,31.61
2022-08-05T15:09:01.608Z,31.65
2022-08-05T15:11:52.959Z,32.10
2022-08-05T15:14:35.659Z,31.86
2022-08-05T15:17:44.761Z,31.55
2022-08-05T15:20:00.782Z,32.11
2022-08-05T15:22:32.994Z,32.34
2022-08-05T15:25:13.600Z,32.23
2022-08-05T15:27:52.476Z,31.88
2022-08-05T15:30:26.389Z,31.57
2022-08-05T15:32:58.006Z,31.89
2022-08-05T15:35:36.199Z,31.35
2022-08-05T15:38:31.820Z,31.64
2022-08-05T15:41:23.060Z,32.31
2022-08-05T15:43:51.455Z,32.53
2022-08-05T15:46:24.874Z,32.94
2022-08-05T15:49:01.291Z,32.83
2022-08-05T15:52:03.746Z,32.80
2022-08-05T15:54:35.085Z,32.96
2022-08-05T15:57:09.816Z,32.39
2022-08-05T15:59:41.661Z,32.11
2022-08-05T16:02:14.782Z,31.57
2022-08-05T16:04:53.003Z,31.12
2022-08-05T16:07:24.298Z,31.70
2022-08-05T16:10:01.334Z,32.23
2022-08-05T16:12:34.047Z,32.12
2022-08-05T16:15:06.178Z,32.09
2022-08-05T16:17:41.437Z,32.63
2022-08-05T16:20:13.827Z,32.84
2022-08-05T16:22:45.450Z,33.38
2022-08-05T16:25:18.258Z,32.88
2022-08-05T16:28:02.192Z,31.88
2022-08-05T16:30:38.127Z,31.91
2022-08-05T16:33:10.385Z,31.80
2022-08-05T16:35:44.630Z,30.87
2022-08-05T16:38:25.402Z,30.86
2022-08-05T16:41:02.590Z,30.88
2022-08-05T16:43:56.305Z,30.45
2022-08-05T16:46:28.189Z,30.57
2022-08-05T16:48:59.794Z,30.95
2022-08-05T16:51:50.412Z,31.21
2022-08-05T16:54:28.943Z,31.36
2022-08-05T16:57:03.501Z,31.29
2022-08-05T17:00:01.509Z,31.27
2022-08-05T17:02:30.362Z,31.78
2022-08-05T17:05:01.921Z,31.78
2022-08-05T17:07:43.815Z,31.78
2022-08-05T17:10:26.477Z,32.03
2022-08-05T17:13:02.057Z,32.24
2022-08-05T17:15:47.835Z,32.32
2022-08-05T17:18:21.364Z,32.78
2022-08-05T17:20:54.137Z,33.01
2022-08-05T17:24:04.457Z,33.18
2022-08-05T17:26:17.929Z,33.21
2022-08-05T17:28:51.123Z,33.12
2022-08-05T17:31:24.322Z,33.08
2022-08-05T17:34:12.699Z,33.48
2022-08-05T17:36:49.603Z,33.73
2022-08-05T17:39:24.450Z,33.89
2022-08-05T17:42:17.632Z,34.17
2022-08-05T17:44:52.171Z,34.60
2022-08-05T17:47:24.009Z,35.05
2022-08-05T17:50:04.116Z,35.57
2022-08-05T17:52:53.326Z,36.03
2022-08-05T17:55:27.435Z,36.37
2022-08-05T17:58:13.341Z,36.76
2022-08-05T18:00:47.904Z,36.95
2022-08-05T18:03:56.576Z,37.31
2022-08-05T18:06:15.598Z,37.47
2022-08-05T18:08:52.709Z,37.82
2022-08-05T18:11:32.833Z,37.99
2022-08-05T18:14:13.524Z,38.05
2022-08-05T18:16:52.587Z,38.27
2022-08-05T18:19:25.995Z,38.32
2022-08-05T18:22:09.616Z,38.40
2022-08-05T18:24:43.026Z,38.83
2022-08-05T18:27:18.503Z,39.09
2022-08-05T18:29:54.361Z,39.34
2022-08-05T18:32:28.457Z,39.39
2022-08-05T18:35:01.501Z,39.39
2022-08-05T18:37:33.983Z,39.37
2022-08-05T18:41:50.639Z,39.53
2022-08-05T18:43:05.564Z,39.43
2022-08-05T18:45:42.576Z,39.59
2022-08-05T18:48:30.245Z,39.77
2022-08-05T18:52:03.016Z,39.60
2022-08-05T18:54:12.167Z,39.78
2022-08-05T18:56:50.973Z,40.23
2022-08-05T18:59:45.703Z,40.58
2022-08-05T19:02:28.210Z,40.93
2022-08-05T19:06:05.909Z,41.06
2022-08-05T19:07:55.755Z,41.68
2022-08-05T19:10:28.807Z,42.02
2022-08-05T19:13:02.394Z,42.17
2022-08-05T19:15:59.515Z,42.05
2022-08-05T19:18:27.769Z,42.37
2022-08-05T19:21:00.017Z,42.54
2022-08-05T19:24:07.482Z,42.77
2022-08-05T19:26:25.586Z,43.14
2022-08-05T19:28:57.552Z,43.38
2022-08-05T19:31:30.141Z,43.50
2022-08-05T19:34:05.624Z,43.37
2022-08-05T19:36:38.281Z,43.58
2022-08-05T19:39:10.152Z,43.74
2022-08-05T19:42:05.927Z,43.96
2022-08-05T19:44:44.592Z,44.01
2022-08-05T19:47:17.447Z,43.81
2022-08-05T19:49:50.124Z,44.33
2022-08-05T19:52:29.462Z,44.80
2022-08-05T19:56:14.545Z,44.91
2022-08-05T19:58:29.465Z,44.94
2022-08-05T20:00:57.262Z,45.45
2022-08-05T20:03:42.117Z,45.84
2022-08-05T20:06:15.978Z,45.88
2022-08-05T20:09:13.754Z,45.84
2022-08-05T20:11:48.236Z,46.37
2022-08-05T20:14:23.540Z,46.26
2022-08-05T20:17:00.866Z,46.27
2022-08-05T20:19:36.467Z,47.08
2022-08-05T20:22:13.368Z,47.43
2022-08-05T20:24:44.811Z,47.46
2022-08-05T20:27:16.462Z,47.63
2022-08-05T20:29:58.204Z,48.09
2022-08-05T20:32:31.043Z,48.10
2022-08-05T20:35:05.171Z,48.08
2022-08-05T20:38:06.608Z,47.94
2022-08-05T20:40:29.817Z,48.13
2022-08-05T20:43:05.323Z,48.18
2022-08-05T20:45:56.387Z,48.51
2022-08-05T20:48:28.849Z,48.30
2022-08-05T20:51:00.298Z,48.37
2022-08-05T20:53:40.973Z,48.55
2022-08-05T20:56:12.850Z,48.61
2022-08-05T20:58:44.734Z,48.93
2022-08-05T21:01:16.370Z,49.09
2022-08-05T21:03:48.815Z,49.17
2022-08-05T21:06:28.802Z,49.06
2022-08-05T21:09:01.269Z,49.15
2022-08-05T21:12:07.292Z,49.23
2022-08-05T21:14:26.620Z,49.07
2022-08-05T21:16:58.448Z,49.17
2022-08-05T21:19:29.906Z,49.56
2022-08-05T21:22:23.094Z,49.64
2022-08-05T21:24:56.709Z,49.66
2022-08-05T21:27:28.680Z,49.91
2022-08-05T21:30:12.421Z,50.26
2022-08-05T21:32:49.208Z,50.17
2022-08-05T21:35:29.863Z,50.28
2022-08-05T21:38:02.567Z,50.07
2022-08-05T21:40:34.130Z,49.78
2022-08-05T21:43:05.849Z,50.12
2022-08-05T21:45:56.418Z,50.05
2022-08-05T21:48:29.511Z,49.90
2022-08-05T21:51:03.579Z,50.11
2022-08-05T21:53:59.559Z,50.30
2022-08-05T21:56:35.632Z,50.17
2022-08-05T21:59:24.120Z,50.30
2022-08-05T22:01:57.876Z,50.34
2022-08-05T22:04:29.436Z,50.42
2022-08-05T22:07:01.178Z,50.60
2022-08-05T22:09:45.753Z,50.81
2022-08-05T22:12:17.899Z,50.88
2022-08-05T22:14:49.409Z,50.97
2022-08-05T22:17:21.052Z,50.77
2022-08-05T22:20:03.118Z,50.88
2022-08-05T22:23:02.660Z,51.06
2022-08-05T22:26:09.905Z,50.75
2022-08-05T22:28:42.959Z,51.26
2022-08-05T22:31:14.427Z,51.38
2022-08-05T22:33:56.571Z,51.41
2022-08-05T22:36:32.271Z,51.56
2022-08-05T22:39:09.102Z,51.51
2022-08-05T22:42:09.264Z,51.30
2022-08-05T22:44:33.364Z,51.21
2022-08-05T22:47:06.683Z,51.17
2022-08-05T22:50:19.117Z,51.27
2022-08-05T22:52:32.561Z,51.30
2022-08-05T22:55:18.943Z,50.99
2022-08-05T22:57:52.615Z,51.21
2022-08-05T23:00:26.487Z,51.17
2022-08-05T23:02:59.063Z,51.24
2022-08-05T23:05:30.515Z,51.59
2022-08-05T23:08:07.923Z,51.49
2022-08-05T23:10:43.609Z,51.50
2022-08-05T23:13:15.067Z,51.32
2022-08-05T23:15:50.322Z,51.04
2022-08-05T23:18:22.887Z,50.72
2022-08-05T23:20:54.774Z,50.76
2022-08-05T23:23:26.323Z,51.14
2022-08-05T23:26:05.211Z,51.41
2022-08-05T23:28:36.611Z,51.42
2022-08-05T23:31:17.535Z,51.36
2022-08-05T23:34:03.908Z,51.31
2022-08-05T23:36:40.112Z,51.25
2022-08-05T23:39:32.220Z,51.36
2022-08-05T23:42:14.406Z,51.51
2022-08-05T23:44:46.165Z,51.24
2022-08-05T23:47:26.155Z,51.34
2022-08-05T23:49:58.661Z,51.61
2022-08-05T23:52:31.591Z,52.50
2022-08-05T23:55:07.034Z,53.12
2022-08-05T23:57:40.474Z,53.07
